Time;durP1;ratioP1;P1;durP2;ratioP2;P2;SDS_P1;SDS_P2;PMS_P1;PMS_P2;Temp;Humidity;BMP_temperature;BMP_pressure;BME280_temperature;BME280_humidity;BME280_pressure;Samples;Min_cycle;Max_cycle;Signal;HPM_P1;HPM_P2
2022/08/02 00:01:42;;;;;;;3.30;1.30;;;23.80;1.00;;;;;;5065143;28;20473;-76
2022/08/02 00:04:11;;;;;;;2.00;1.30;;;23.80;1.00;;;;;;5068057;28;20451;-77
2022/08/02 00:06:40;;;;;;;2.47;1.70;;;23.60;1.00;;;;;;5067534;28;20458;-77
2022/08/02 00:09:08;;;;;;;1.40;1.30;;;23.50;18.40;;;;;;5070407;28;20470;-77
2022/08/02 00:11:36;;;;;;;1.90;1.80;;;23.60;1.00;;;;;;5066186;28;20453;-77
2022/08/02 00:14:04;;;;;;;2.40;1.53;;;23.60;1.00;;;;;;5065795;28;20446;-76
2022/08/02 00:16:33;;;;;;;1.50;1.40;;;23.60;1.00;;;;;;5065519;28;20470;-77
2022/08/02 00:19:05;;;;;;;1.50;1.40;;;23.30;1.00;;;;;;5064978;28;20477;-77
2022/08/02 00:21:35;;;;;;;1.50;1.40;;;23.50;1.00;;;;;;5066475;28;20466;-76
2022/08/02 00:24:03;;;;;;;3.57;1.20;;;23.50;1.00;;;;;;5065359;28;20461;-77
2022/08/02 00:26:51;;;;;;;1.67;1.40;;;23.60;1.00;;;;;;5063559;28;20498;-77
2022/08/02 00:29:19;;;;;;;1.60;1.30;;;23.70;1.00;;;;;;5068120;28;20481;-76
2022/08/02 00:31:47;;;;;;;2.43;1.13;;;23.90;1.00;;;;;;5064419;28;20450;-76
2022/08/02 00:34:16;;;;;;;1.43;1.20;;;24.00;1.00;;;;;;5063790;28;20471;-77
2022/08/02 00:36:58;;;;;;;1.40;1.27;;;24.00;1.00;;;;;;5062950;28;20474;-77
2022/08/02 00:39:26;;;;;;;1.33;1.10;;;23.90;99.90;;;;;;5066796;28;20478;-76
2022/08/02 00:42:02;;;;;;;1.60;1.20;;;23.90;99.90;;;;;;5066265;28;20495;-76
2022/08/02 00:44:30;;;;;;;1.40;1.30;;;23.70;1.00;;;;;;5067771;28;20477;-77
2022/08/02 00:46:58;;;;;;;1.30;1.20;;;23.60;1.00;;;;;;5062645;28;20459;-76
2022/08/02 00:49:27;;;;;;;1.00;1.00;;;23.60;99.90;;;;;;5069507;28;20536;-77
2022/08/02 00:51:55;;;;;;;1.47;1.10;;;23.50;1.00;;;;;;5061128;28;20459;-76
2022/08/02 00:54:25;;;;;;;1.67;1.27;;;23.50;1.00;;;;;;5064632;28;20450;-77
2022/08/02 00:56:53;;;;;;;1.40;1.30;;;23.40;1.00;;;;;;5068291;28;20485;-76
2022/08/02 00:59:21;;;;;;;1.20;1.10;;;23.40;1.00;;;;;;5069661;28;20474;-77
2022/08/02 01:01:50;;;;;;;2.10;1.43;;;23.30;1.00;;;;;;5065713;28;20513;-76
2022/08/02 01:04:26;;;;;;;1.20;1.10;;;23.30;1.00;;;;;;5063994;28;20541;-76
2022/08/02 01:06:59;;;;;;;1.50;1.10;;;23.20;1.00;;;;;;5066485;28;20878;-76
2022/08/02 01:09:29;;;;;;;1.37;1.27;;;23.10;1.00;;;;;;5069529;28;20450;-76
2022/08/02 01:11:57;;;;;;;1.17;1.10;;;23.10;1.00;;;;;;5061529;28;20451;-77
2022/08/02 01:14:30;;;;;;;1.13;1.03;;;23.20;1.00;;;;;;5066074;28;20998;-76
2022/08/02 01:17:03;;;;;;;1.40;1.30;;;23.30;99.90;;;;;;5062815;28;20454;-76
2022/08/02 01:19:37;;;;;;;1.13;1.03;;;23.50;99.90;;;;;;5062906;28;20478;-76
2022/08/02 01:22:20;;;;;;;1.30;1.20;;;23.50;99.90;;;;;;5062661;28;20450;-77
2022/08/02 01:25:26;;;;;;;7.40;1.23;;;23.50;99.90;;;;;;5063970;28;20507;-77
2022/08/02 01:28:20;;;;;;;2.33;1.20;;;23.60;99.90;;;;;;5065751;28;21013;-76
2022/08/02 01:30:53;;;;;;;1.20;1.10;;;23.70;99.90;;;;;;5066441;28;20496;-76
2022/08/02 01:33:23;;;;;;;2.50;1.10;;;23.60;99.90;;;;;;5060108;28;20463;-76
2022/08/02 01:35:54;;;;;;;1.33;1.10;;;23.70;99.90;;;;;;5062049;28;20463;-77
2022/08/02 01:38:29;;;;;;;1.10;0.93;;;23.60;99.90;;;;;;5064317;28;20478;-76
2022/08/02 01:40:59;;;;;;;1.10;1.00;;;23.50;99.90;;;;;;5066462;28;20454;-76
2022/08/02 01:43:31;;;;;;;1.10;1.00;;;23.50;99.90;;;;;;5065332;28;20965;-76
2022/08/02 01:46:01;;;;;;;1.23;1.13;;;23.60;99.90;;;;;;5061661;28;20454;-77
2022/08/02 01:48:31;;;;;;;1.33;1.23;;;23.60;99.90;;;;;;5069409;28;20490;-77
2022/08/02 01:51:02;;;;;;;1.20;0.93;;;23.60;99.90;;;;;;5059089;28;20546;-77
2022/08/02 01:53:31;;;;;;;1.30;1.17;;;23.60;99.90;;;;;;5064247;28;21191;-76
2022/08/02 01:56:01;;;;;;;1.20;1.10;;;23.70;99.90;;;;;;5061908;28;20461;-77
2022/08/02 01:58:34;;;;;;;1.10;1.00;;;23.60;99.90;;;;;;5065443;28;20474;-77
2022/08/02 02:01:04;;;;;;;1.27;1.17;;;23.60;99.90;;;;;;5067508;28;20462;-77
2022/08/02 02:03:35;;;;;;;1.13;1.10;;;23.50;99.90;;;;;;5061971;28;20954;-77
2022/08/02 02:06:11;;;;;;;1.30;1.20;;;23.50;99.90;;;;;;5059888;28;20467;-77
2022/08/02 02:08:41;;;;;;;1.20;1.10;;;23.50;99.90;;;;;;5064671;28;20470;-76
2022/08/02 02:11:09;;;;;;;1.30;1.20;;;23.50;99.90;;;;;;5068652;28;20435;-77
2022/08/02 02:14:01;;;;;;;3.10;1.33;;;23.50;99.90;;;;;;5062531;28;20510;-78
2022/08/02 02:16:31;;;;;;;1.30;1.20;;;23.50;99.90;;;;;;5062317;28;20483;-78
2022/08/02 02:19:02;;;;;;;1.77;1.23;;;23.50;99.90;;;;;;5064828;28;20547;-77
2022/08/02 02:21:30;;;;;;;1.77;1.17;;;23.40;99.90;;;;;;5061091;28;20485;-77
2022/08/02 02:24:02;;;;;;;1.30;1.20;;;23.40;99.90;;;;;;5062878;28;20455;-77
2022/08/02 02:26:34;;;;;;;3.20;1.50;;;23.40;99.90;;;;;;5066723;28;20455;-78
2022/08/02 02:29:08;;;;;;;1.37;1.27;;;23.40;99.90;;;;;;5068262;28;20919;-76
2022/08/02 02:31:38;;;;;;;2.00;1.30;;;23.40;99.90;;;;;;5063807;28;20501;-78
2022/08/02 02:34:10;;;;;;;1.80;1.70;;;23.30;99.90;;;;;;5064286;28;20458;-78
2022/08/02 02:36:41;;;;;;;1.37;1.27;;;23.30;99.90;;;;;;5063178;28;20458;-78
2022/08/02 02:39:14;;;;;;;3.20;1.70;;;23.30;99.90;;;;;;5061920;28;20524;-78
2022/08/02 02:41:44;;;;;;;1.40;1.30;;;23.30;99.90;;;;;;5064753;28;20462;-76
2022/08/02 02:44:16;;;;;;;1.00;1.00;;;23.20;99.90;;;;;;5064084;28;20466;-76
2022/08/02 02:46:47;;;;;;;1.20;1.10;;;23.20;99.90;;;;;;5064030;28;20458;-77
2022/08/02 02:49:17;;;;;;;1.33;1.17;;;23.20;99.90;;;;;;5064055;28;21021;-76
2022/08/02 02:51:46;;;;;;;1.60;1.50;;;23.10;99.90;;;;;;5063613;28;20453;-76
2022/08/02 02:54:16;;;;;;;2.17;1.60;;;23.10;99.90;;;;;;5062627;28;20512;-76
2022/08/02 02:57:04;;;;;;;1.40;1.30;;;23.10;99.90;;;;;;5064011;28;20490;-77
2022/08/02 02:59:35;;;;;;;3.13;1.00;;;23.10;99.90;;;;;;5063532;28;20482;-76
2022/08/02 03:02:17;;;;;;;1.57;1.33;;;23.00;99.90;;;;;;5062201;28;20976;-77
2022/08/02 03:04:46;;;;;;;1.20;1.10;;;23.00;99.90;;;;;;5063579;28;20462;-76
2022/08/02 03:07:26;;;;;;;1.20;1.10;;;23.00;99.90;;;;;;5061970;28;20984;-76
2022/08/02 03:09:54;;;;;;;1.30;1.17;;;23.00;99.90;;;;;;5057973;28;20478;-76
2022/08/02 03:12:24;;;;;;;4.23;1.40;;;23.00;99.90;;;;;;5065098;28;20529;-77
2022/08/02 03:15:02;;;;;;;1.30;1.20;;;23.00;99.90;;;;;;5064628;28;20548;-76
2022/08/02 03:17:41;;;;;;;6.07;1.50;;;23.00;99.90;;;;;;5063257;28;20469;-76
2022/08/02 03:20:12;;;;;;;1.37;1.27;;;23.00;99.90;;;;;;5061627;28;20482;-76
2022/08/02 03:22:40;;;;;;;1.43;1.33;;;23.00;99.90;;;;;;5062287;28;20449;-76
2022/08/02 03:25:09;;;;;;;1.27;1.17;;;23.00;99.90;;;;;;5059485;28;20456;-76
2022/08/02 03:27:37;;;;;;;2.00;1.00;;;23.00;99.90;;;;;;5060795;28;20446;-76
2022/08/02 03:30:10;;;;;;;1.50;1.40;;;22.90;99.90;;;;;;5064144;28;20498;-76
2022/08/02 03:32:40;;;;;;;1.87;1.20;;;22.90;99.90;;;;;;5060546;28;20799;-77
2022/08/02 03:35:12;;;;;;;1.73;1.23;;;22.90;99.90;;;;;;5062277;28;20446;-76
2022/08/02 03:37:41;;;;;;;1.80;1.33;;;22.80;99.90;;;;;;5062756;28;20461;-76
2022/08/02 03:40:11;;;;;;;1.50;1.40;;;22.90;99.90;;;;;;5060527;28;20485;-76
2022/08/02 03:42:41;;;;;;;1.93;1.30;;;22.80;99.90;;;;;;5063598;28;20457;-78
2022/08/02 03:45:13;;;;;;;1.70;1.60;;;22.80;99.90;;;;;;5063757;28;20457;-76
2022/08/02 03:47:42;;;;;;;1.63;1.10;;;22.70;99.90;;;;;;5065860;28;20453;-77
2022/08/02 03:50:12;;;;;;;4.53;1.27;;;22.70;99.90;;;;;;5062522;28;20481;-77
2022/08/02 03:52:42;;;;;;;1.43;1.10;;;22.70;99.90;;;;;;5058790;28;20515;-76
2022/08/02 03:55:11;;;;;;;1.10;1.00;;;22.80;99.90;;;;;;5061301;28;20456;-78
2022/08/02 03:57:40;;;;;;;1.63;1.30;;;22.80;99.90;;;;;;5064694;28;20458;-78
2022/08/02 04:00:11;;;;;;;1.47;1.37;;;22.80;99.90;;;;;;5063844;28;20474;-77
2022/08/02 04:02:40;;;;;;;1.20;1.10;;;22.80;99.90;;;;;;5060859;28;20541;-76
2022/08/02 04:05:09;;;;;;;1.30;1.20;;;22.80;99.90;;;;;;5059946;28;20534;-77
2022/08/02 04:07:37;;;;;;;2.20;1.30;;;22.80;99.90;;;;;;5062439;28;20446;-78
2022/08/02 04:10:26;;;;;;;1.43;1.33;;;22.80;99.90;;;;;;5061317;28;20458;-77
2022/08/02 04:12:55;;;;;;;1.93;1.30;;;22.80;99.90;;;;;;5062749;28;20454;-78
2022/08/02 04:15:25;;;;;;;1.40;1.30;;;22.70;99.90;;;;;;5061265;28;20461;-76
2022/08/02 04:17:56;;;;;;;1.67;1.27;;;22.70;99.90;;;;;;5061747;28;20451;-77
2022/08/02 04:20:27;;;;;;;1.20;1.00;;;22.70;99.90;;;;;;5060874;28;20489;-76
2022/08/02 04:23:01;;;;;;;2.40;1.10;;;22.70;99.90;;;;;;5061417;28;20536;-78
2022/08/02 04:25:31;;;;;;;1.93;1.20;;;22.70;99.90;;;;;;5054598;28;20445;-79
2022/08/02 04:28:08;;;;;;;1.87;1.67;;;22.70;99.90;;;;;;5064585;28;20828;-77
2022/08/02 04:30:48;;;;;;;1.40;1.30;;;22.70;99.90;;;;;;5062725;28;20511;-77
2022/08/02 04:33:17;;;;;;;2.07;1.40;;;22.60;99.90;;;;;;5060494;28;20450;-77
2022/08/02 04:35:45;;;;;;;1.50;1.30;;;22.50;99.90;;;;;;5062413;28;20458;-77
2022/08/02 04:38:14;;;;;;;1.40;1.30;;;22.60;99.90;;;;;;5062245;28;20462;-76
2022/08/02 04:40:50;;;;;;;1.50;1.40;;;22.60;99.90;;;;;;5059588;28;20859;-78
2022/08/02 04:43:19;;;;;;;1.43;1.20;;;22.50;99.90;;;;;;5060690;28;20446;-78
2022/08/02 04:45:51;;;;;;;1.83;1.30;;;22.50;99.90;;;;;;5058707;28;20470;-75
2022/08/02 04:48:19;;;;;;;2.00;1.10;;;22.50;99.90;;;;;;5063051;28;20454;-76
2022/08/02 04:50:47;;;;;;;1.63;1.53;;;22.50;99.90;;;;;;5064305;28;20944;-76
2022/08/02 04:53:16;;;;;;;3.67;1.23;;;22.50;99.90;;;;;;5066050;28;20453;-77
2022/08/02 04:55:44;;;;;;;2.50;1.20;;;22.50;99.90;;;;;;5063544;28;20524;-76
2022/08/02 04:58:12;;;;;;;1.50;1.40;;;22.50;99.90;;;;;;5062688;28;20530;-76
2022/08/02 05:01:02;;;;;;;2.40;1.10;;;22.50;99.90;;;;;;5065554;28;20565;-76
2022/08/02 05:03:30;;;;;;;1.30;1.20;;;22.50;99.90;;;;;;5064833;28;20493;-78
2022/08/02 05:05:59;;;;;;;1.40;1.30;;;22.50;99.90;;;;;;5063804;28;20461;-76
2022/08/02 05:08:27;;;;;;;1.50;1.40;;;22.60;99.90;;;;;;5064038;28;20473;-75
2022/08/02 05:10:55;;;;;;;1.60;1.50;;;22.60;99.90;;;;;;5065830;28;21283;-77
2022/08/02 05:13:24;;;;;;;1.73;1.63;;;22.60;99.90;;;;;;5063709;28;20504;-76
2022/08/02 05:15:52;;;;;;;1.77;1.67;;;22.60;99.90;;;;;;5064438;28;20466;-77
2022/08/02 05:18:22;;;;;;;1.80;1.70;;;22.60;99.90;;;;;;5065653;28;20469;-78
2022/08/02 05:20:50;;;;;;;1.90;1.70;;;22.60;99.90;;;;;;5064574;28;20848;-77
2022/08/02 05:23:25;;;;;;;1.47;1.37;;;22.60;99.90;;;;;;5064763;28;20493;-77
2022/08/02 05:25:53;;;;;;;2.00;1.90;;;22.70;99.90;;;;;;5048430;28;20470;-77
2022/08/02 05:28:21;;;;;;;1.60;1.50;;;22.70;99.90;;;;;;5064836;28;20454;-76
2022/08/02 05:30:49;;;;;;;3.20;1.93;;;22.70;99.90;;;;;;5064113;28;20469;-74
2022/08/02 05:33:17;;;;;;;1.80;1.70;;;22.70;99.90;;;;;;5066608;28;20458;-77
2022/08/02 05:35:47;;;;;;;2.00;1.30;;;22.70;1.00;;;;;;5060709;28;20455;-77
2022/08/02 05:38:15;;;;;;;1.67;1.40;;;22.80;99.90;;;;;;5065872;28;20478;-77
2022/08/02 05:40:46;;;;;;;2.20;1.23;;;22.80;99.90;;;;;;5063237;28;20455;-74
2022/08/02 05:43:22;;;;;;;2.20;1.23;;;22.90;99.90;;;;;;5056332;28;22057;-78
2022/08/02 05:45:53;;;;;;;1.50;1.40;;;23.00;99.90;;;;;;5055913;28;20464;-77
2022/08/02 05:48:22;;;;;;;2.20;1.33;;;23.00;99.90;;;;;;5059318;28;21197;-76
2022/08/02 05:51:03;;;;;;;1.40;1.20;;;23.00;99.90;;;;;;5062612;28;21161;-77
2022/08/02 05:53:38;;;;;;;3.13;1.53;;;23.10;99.90;;;;;;5060628;28;20455;-78
2022/08/02 05:56:16;;;;;;;2.47;2.27;;;23.10;99.90;;;;;;5060550;28;20454;-76
2022/08/02 05:58:52;;;;;;;1.40;1.30;;;23.10;99.90;;;;;;5059719;28;20477;-77
2022/08/02 06:01:28;;;;;;;1.80;1.70;;;23.20;99.90;;;;;;5062444;28;20481;-79
2022/08/02 06:03:59;;;;;;;2.47;1.83;;;23.20;99.90;;;;;;5063615;28;20508;-77
2022/08/02 06:06:32;;;;;;;1.43;1.33;;;23.20;99.90;;;;;;5058213;28;20459;-76
2022/08/02 06:09:02;;;;;;;1.60;1.50;;;23.20;99.90;;;;;;5060586;28;20561;-77
2022/08/02 06:11:36;;;;;;;2.10;1.70;;;23.20;99.90;;;;;;5063202;28;20451;-78
2022/08/02 06:14:05;;;;;;;1.70;1.60;;;23.30;99.90;;;;;;5062642;28;20458;-76
2022/08/02 06:16:34;;;;;;;2.17;1.90;;;23.30;99.90;;;;;;5066783;28;20462;-76
2022/08/02 06:19:11;;;;;;;1.70;1.60;;;23.40;99.90;;;;;;5065160;28;20497;-79
2022/08/02 06:21:42;;;;;;;4.70;1.53;;;23.40;99.90;;;;;;5064240;28;20469;-78
2022/08/02 06:24:32;;;;;;;1.80;1.37;;;23.40;99.90;;;;;;5060185;28;20950;-78
2022/08/02 06:27:01;;;;;;;2.33;1.87;;;23.40;99.90;;;;;;5060102;28;20455;-78
2022/08/02 06:29:32;;;;;;;2.07;1.73;;;23.40;99.90;;;;;;5054008;28;20544;-76
2022/08/02 06:32:07;;;;;;;3.00;1.60;;;23.50;99.90;;;;;;5059741;28;21131;-77
2022/08/02 06:34:37;;;;;;;3.73;1.70;;;23.50;99.90;;;;;;5067584;28;20450;-76
2022/08/02 06:37:14;;;;;;;2.00;1.40;;;23.50;99.90;;;;;;5062834;28;20442;-77
2022/08/02 06:39:46;;;;;;;2.60;1.47;;;23.60;99.90;;;;;;5060281;28;20453;-76
2022/08/02 06:42:21;;;;;;;2.73;1.70;;;23.60;99.90;;;;;;5065367;28;20474;-79
2022/08/02 06:44:54;;;;;;;1.73;1.30;;;23.60;99.90;;;;;;5064392;28;20508;-83
2022/08/02 06:47:25;;;;;;;1.60;1.50;;;23.60;99.90;;;;;;5065928;28;20506;-83
2022/08/02 06:49:55;;;;;;;2.17;1.80;;;23.70;99.90;;;;;;5063069;28;20512;-83
2022/08/02 06:52:29;;;;;;;2.00;1.80;;;23.80;99.90;;;;;;5064705;28;20499;-82
2022/08/02 06:54:59;;;;;;;1.43;1.33;;;24.00;99.90;;;;;;5069449;28;20481;-82
2022/08/02 06:57:29;;;;;;;1.97;1.50;;;24.10;99.90;;;;;;5068357;28;20454;-83
2022/08/02 07:00:00;;;;;;;4.03;1.87;;;24.30;99.90;;;;;;5065834;28;20466;-82
2022/08/02 07:02:29;;;;;;;2.90;2.13;;;24.40;99.90;;;;;;5063317;28;20485;-83
2022/08/02 07:04:57;;;;;;;2.33;1.90;;;24.60;99.90;;;;;;5068098;28;20469;-83
2022/08/02 07:07:27;;;;;;;3.00;2.50;;;24.70;99.90;;;;;;5072340;28;20849;-83
2022/08/02 07:09:56;;;;;;;1.73;1.63;;;24.80;99.90;;;;;;5066449;28;20470;-83
2022/08/02 07:12:30;;;;;;;2.87;2.20;;;24.90;99.90;;;;;;5066817;28;20466;-83
2022/08/02 07:14:59;;;;;;;4.47;1.97;;;25.00;99.90;;;;;;5069101;28;20927;-83
2022/08/02 07:17:27;;;;;;;2.03;1.80;;;25.10;99.90;;;;;;5065678;28;20532;-82
2022/08/02 07:19:56;;;;;;;2.13;1.70;;;25.20;99.90;;;;;;5058261;28;20491;-83
2022/08/02 07:22:25;;;;;;;2.00;1.80;;;25.20;99.90;;;;;;5062406;28;20501;-83
2022/08/02 07:24:58;;;;;;;3.93;2.57;;;25.30;99.90;;;;;;5063182;28;20537;-82
2022/08/02 07:27:27;;;;;;;2.43;2.23;;;25.30;99.90;;;;;;5073024;28;20457;-83
2022/08/02 07:29:55;;;;;;;3.00;2.80;;;25.40;99.90;;;;;;5065753;28;20473;-83
2022/08/02 07:32:26;;;;;;;4.80;2.90;;;25.30;99.90;;;;;;5073665;28;20925;-83
2022/08/02 07:34:55;;;;;;;4.67;2.50;;;25.30;99.90;;;;;;5063435;28;20461;-83
2022/08/02 07:37:25;;;;;;;2.43;2.23;;;25.40;99.90;;;;;;5065658;28;20443;-83
2022/08/02 07:40:15;;;;;;;3.57;2.80;;;25.30;99.90;;;;;;5067099;28;20503;-83
2022/08/02 07:42:48;;;;;;;3.87;2.50;;;25.40;99.90;;;;;;5065659;28;20465;-82
2022/08/02 07:45:16;;;;;;;2.80;2.53;;;25.40;99.90;;;;;;5063539;28;20473;-83
2022/08/02 07:47:45;;;;;;;4.63;3.47;;;25.40;99.90;;;;;;5097460;28;21020;-82
2022/08/02 07:50:16;;;;;;;3.40;1.70;;;25.40;99.90;;;;;;5066022;28;20466;-83
2022/08/02 07:52:46;;;;;;;3.57;2.03;;;25.40;99.90;;;;;;5060673;28;20450;-84
2022/08/02 07:55:17;;;;;;;2.50;2.30;;;25.50;99.90;;;;;;5060672;28;20460;-83
2022/08/02 07:57:46;;;;;;;2.87;2.30;;;25.50;99.90;;;;;;5061169;28;20465;-83
2022/08/02 08:00:16;;;;;;;5.20;2.93;;;25.50;99.90;;;;;;5064699;28;20487;-83
2022/08/02 08:02:45;;;;;;;2.90;2.70;;;25.60;99.90;;;;;;5067795;28;20478;-81
2022/08/02 08:05:14;;;;;;;2.10;2.00;;;25.60;99.90;;;;;;5059834;28;20952;-83
2022/08/02 08:07:42;;;;;;;3.53;3.23;;;25.60;99.90;;;;;;5065147;28;20458;-83
2022/08/02 08:10:10;;;;;;;4.20;2.67;;;25.70;99.90;;;;;;5063261;28;20482;-83
2022/08/02 08:12:40;;;;;;;4.00;2.83;;;25.70;99.90;;;;;;5064948;28;20454;-82
2022/08/02 08:15:09;;;;;;;3.03;2.37;;;25.70;99.90;;;;;;5058046;28;20443;-83
2022/08/02 08:17:38;;;;;;;2.63;2.33;;;25.70;99.90;;;;;;5063395;28;20981;-84
2022/08/02 08:20:07;;;;;;;2.60;2.40;;;25.80;99.90;;;;;;5080520;28;20490;-83
2022/08/02 08:22:39;;;;;;;2.43;2.23;;;25.80;99.90;;;;;;5069293;28;20486;-84
2022/08/02 08:25:08;;;;;;;2.93;2.60;;;25.80;99.90;;;;;;5062995;28;20520;-84
2022/08/02 08:27:36;;;;;;;2.00;1.90;;;25.80;99.90;;;;;;5070943;28;20825;-85
2022/08/02 08:30:07;;;;;;;2.80;2.30;;;25.90;99.90;;;;;;5069996;28;20501;-85
2022/08/02 08:32:36;;;;;;;4.27;2.80;;;25.90;99.90;;;;;;5069086;28;20458;-84
2022/08/02 08:35:05;;;;;;;2.30;2.10;;;26.00;99.90;;;;;;5072992;28;20957;-82
2022/08/02 08:37:34;;;;;;;3.50;3.20;;;26.00;99.90;;;;;;5071174;28;20458;-84
2022/08/02 08:40:04;;;;;;;3.53;3.27;;;26.00;99.90;;;;;;5071505;28;20520;-85
2022/08/02 08:42:33;;;;;;;3.13;2.83;;;26.00;99.90;;;;;;5070297;28;20465;-83
2022/08/02 08:45:02;;;;;;;3.50;2.60;;;26.00;99.90;;;;;;5065885;28;20995;-83
2022/08/02 08:47:35;;;;;;;3.40;2.87;;;26.00;99.90;;;;;;5067181;28;21328;-83
2022/08/02 08:50:06;;;;;;;2.57;2.33;;;26.00;99.90;;;;;;5062272;28;20482;-82
2022/08/02 08:52:43;;;;;;;2.70;2.50;;;26.10;99.90;;;;;;5070207;28;20469;-83
2022/08/02 08:55:11;;;;;;;2.50;2.30;;;26.10;99.90;;;;;;5068737;28;20558;-83
2022/08/02 08:57:42;;;;;;;2.83;2.60;;;26.10;99.90;;;;;;5061888;28;20494;-84
2022/08/02 09:00:12;;;;;;;2.90;1.83;;;26.10;99.90;;;;;;5069858;28;20469;-85
2022/08/02 09:02:43;;;;;;;2.53;2.33;;;26.10;99.90;;;;;;5062076;28;20508;-82
2022/08/02 09:05:13;;;;;;;1.97;1.80;;;26.10;99.90;;;;;;5071240;28;20457;-82
2022/08/02 09:07:43;;;;;;;3.40;2.67;;;26.10;99.90;;;;;;5068822;28;20450;-83
2022/08/02 09:10:37;;;;;;;1.93;1.83;;;26.20;99.90;;;;;;5067118;28;20553;-85
2022/08/02 09:13:15;;;;;;;2.53;2.33;;;26.10;99.90;;;;;;5068745;28;20462;-85
2022/08/02 09:16:06;;;;;;;2.53;2.30;;;26.10;99.90;;;;;;5067804;28;20455;-84
2022/08/02 09:18:43;;;;;;;2.90;2.70;;;26.20;99.90;;;;;;5071713;28;20884;-84
2022/08/02 09:21:14;;;;;;;4.63;4.20;;;26.10;99.90;;;;;;5070723;28;20478;-85
2022/08/02 09:23:44;;;;;;;3.10;2.90;;;26.10;99.90;;;;;;5061109;28;20478;-85
2022/08/02 09:26:14;;;;;;;4.10;3.40;;;26.10;99.90;;;;;;5070015;28;20449;-85
2022/08/02 09:28:44;;;;;;;2.97;2.20;;;26.20;99.90;;;;;;5069817;28;20646;-85
2022/08/02 09:31:14;;;;;;;2.87;2.30;;;26.10;99.90;;;;;;5071974;28;21268;-86
2022/08/02 09:33:46;;;;;;;2.20;2.10;;;26.20;99.90;;;;;;5066780;28;20458;-85
2022/08/02 09:36:16;;;;;;;2.57;2.37;;;26.20;99.90;;;;;;5069184;28;20458;-85
2022/08/02 09:38:55;;;;;;;3.13;2.70;;;26.30;99.90;;;;;;5072820;28;20520;-85
2022/08/02 09:41:24;;;;;;;2.50;2.30;;;26.40;99.90;;;;;;5064878;28;20454;-84
2022/08/02 09:43:54;;;;;;;2.90;2.70;;;26.40;99.90;;;;;;5071804;28;20470;-83
2022/08/02 09:46:36;;;;;;;2.57;2.40;;;26.40;99.90;;;;;;5064761;28;20455;-84
2022/08/02 09:49:08;;;;;;;2.17;2.07;;;26.50;99.90;;;;;;5068795;28;21325;-84
2022/08/02 09:51:39;;;;;;;2.67;2.43;;;26.50;99.90;;;;;;5068560;28;20443;-84
2022/08/02 09:54:10;;;;;;;2.37;2.17;;;26.60;99.90;;;;;;5065717;28;20494;-84
2022/08/02 09:56:44;;;;;;;2.83;2.63;;;26.60;99.90;;;;;;5061933;28;20456;-84
2022/08/02 09:59:13;;;;;;;2.60;2.23;;;26.70;99.90;;;;;;5063904;28;20479;-84
2022/08/02 10:01:42;;;;;;;2.60;2.40;;;26.70;99.90;;;;;;5064973;28;20447;-85
2022/08/02 10:04:22;;;;;;;2.20;2.10;;;26.80;99.90;;;;;;5062918;28;20475;-84
2022/08/02 10:06:53;;;;;;;2.13;2.03;;;26.70;99.90;;;;;;5063417;28;20461;-83
2022/08/02 10:09:22;;;;;;;2.00;1.90;;;26.70;99.90;;;;;;5067303;28;20466;-83
2022/08/02 10:11:52;;;;;;;2.77;2.40;;;26.80;99.90;;;;;;5067327;28;20458;-83
2022/08/02 10:14:21;;;;;;;2.40;2.20;;;26.90;99.90;;;;;;5064581;28;20455;-83
2022/08/02 10:16:50;;;;;;;2.00;1.90;;;26.90;99.90;;;;;;5098035;27;20459;-82
2022/08/02 10:19:20;;;;;;;3.27;3.00;;;27.00;99.90;;;;;;5063098;28;20494;-83
2022/08/02 10:22:11;;;;;;;2.40;2.20;;;27.00;99.90;;;;;;5062218;28;20462;-83
2022/08/02 10:24:41;;;;;;;2.40;2.20;;;27.10;99.90;;;;;;5063731;28;20837;-83
2022/08/02 10:27:18;;;;;;;5.97;2.37;;;27.10;99.90;;;;;;5062741;28;20455;-82
2022/08/02 10:29:49;;;;;;;2.57;2.37;;;27.00;99.90;;;;;;5069490;28;20495;-81
2022/08/02 10:32:29;;;;;;;5.40;2.77;;;27.00;99.90;;;;;;5070241;28;20450;-83
2022/08/02 10:35:04;;;;;;;2.33;2.20;;;27.10;99.90;;;;;;5063965;28;20447;-82
2022/08/02 10:37:56;;;;;;;2.17;2.07;;;27.10;99.90;;;;;;5063360;28;20996;-83
2022/08/02 10:40:25;;;;;;;2.57;2.37;;;27.20;99.90;;;;;;5062314;28;20482;-84
2022/08/02 10:42:58;;;;;;;2.33;2.20;;;27.20;99.90;;;;;;5064926;28;20863;-84
2022/08/02 10:45:28;;;;;;;2.73;2.50;;;27.20;99.90;;;;;;5065031;28;20483;-84
2022/08/02 10:47:58;;;;;;;2.40;2.20;;;27.10;99.90;;;;;;5067254;28;20451;-83
2022/08/02 10:50:53;;;;;;;2.97;2.60;;;27.10;99.90;;;;;;5061864;28;20472;-84
2022/08/02 10:53:27;;;;;;;2.60;2.40;;;27.10;99.90;;;;;;5070317;28;20454;-84
2022/08/02 10:55:57;;;;;;;2.13;2.00;;;27.10;99.90;;;;;;5064744;28;20451;-83
2022/08/02 10:58:28;;;;;;;1.90;1.80;;;27.10;99.90;;;;;;5066310;28;20451;-84
2022/08/02 11:00:58;;;;;;;2.17;2.07;;;27.10;99.90;;;;;;5071446;28;20458;-84
2022/08/02 11:03:44;;;;;;;2.67;2.47;;;27.10;99.90;;;;;;5069695;28;20454;-85
2022/08/02 11:06:15;;;;;;;2.00;1.90;;;27.10;99.90;;;;;;5066722;28;20533;-85
2022/08/02 11:09:26;;;;;;;1.90;1.80;;;27.10;99.90;;;;;;5064030;28;20487;-85
2022/08/02 11:12:03;;;;;;;2.30;2.20;;;27.10;99.90;;;;;;5066050;28;20812;-85
2022/08/02 11:14:33;;;;;;;2.30;2.20;;;27.10;99.90;;;;;;5069751;28;20443;-85
2022/08/02 11:17:23;;;;;;;2.13;1.90;;;27.10;99.90;;;;;;5067959;28;20450;-86
2022/08/02 11:20:15;;;;;;;3.63;2.77;;;27.10;99.90;;;;;;5063629;28;20475;-85
2022/08/02 11:22:46;;;;;;;2.57;2.37;;;27.10;99.90;;;;;;5067948;28;20553;-84
2022/08/02 11:25:33;;;;;;;2.47;2.27;;;27.10;99.90;;;;;;5064701;28;20478;-85
2022/08/02 11:28:22;;;;;;;2.07;1.97;;;27.10;99.90;;;;;;5064518;28;20442;-86
2022/08/02 11:31:00;;;;;;;4.17;3.80;;;27.10;99.90;;;;;;5066248;28;20513;-85
2022/08/02 11:33:34;;;;;;;2.40;2.20;;;27.20;99.90;;;;;;5069572;28;20542;-85
2022/08/02 11:36:05;;;;;;;2.83;2.63;;;27.20;99.90;;;;;;5061276;28;20451;-84
2022/08/02 11:38:35;;;;;;;2.40;2.30;;;27.20;99.90;;;;;;5065308;28;20481;-85
2022/08/02 11:41:04;;;;;;;2.07;1.87;;;27.20;99.90;;;;;;5060115;28;20462;-83
2022/08/02 11:43:38;;;;;;;2.50;2.13;;;27.20;99.90;;;;;;5067059;28;20991;-83
2022/08/02 11:46:13;;;;;;;2.17;2.07;;;27.20;99.90;;;;;;5062886;28;20478;-83
2022/08/02 11:48:42;;;;;;;2.13;2.00;;;27.20;99.90;;;;;;5065696;28;20481;-86
2022/08/02 11:51:13;;;;;;;3.43;2.80;;;27.30;99.90;;;;;;5090716;28;20448;-85
2022/08/02 11:53:44;;;;;;;4.70;1.93;;;27.20;99.90;;;;;;5077208;28;20500;-85
2022/08/02 11:56:14;;;;;;;2.10;2.00;;;27.20;99.90;;;;;;5075816;28;20488;-85
2022/08/02 11:59:03;;;;;;;1.80;1.70;;;27.30;99.90;;;;;;5076876;28;20488;-85
2022/08/02 12:01:32;;;;;;;2.43;2.20;;;27.30;99.90;;;;;;5078553;28;20483;-84
2022/08/02 12:04:18;;;;;;;2.97;2.27;;;27.30;99.90;;;;;;5077250;28;20438;-85
2022/08/02 12:06:58;;;;;;;2.00;1.90;;;27.30;99.90;;;;;;5077917;28;20476;-84
2022/08/02 12:09:29;;;;;;;2.13;2.03;;;27.40;99.90;;;;;;5078556;28;21237;-85
2022/08/02 12:11:58;;;;;;;2.57;2.37;;;27.40;99.90;;;;;;5078473;28;20481;-85
2022/08/02 12:14:29;;;;;;;1.87;1.77;;;27.40;99.90;;;;;;5077972;28;20450;-85
2022/08/02 12:19:44;;;;;;;2.23;1.97;;;27.50;99.90;;;;;;5065907;28;20981;-86
2022/08/02 12:22:16;;;;;;;2.30;2.20;;;27.50;99.90;;;;;;5078189;28;20450;-86
2022/08/02 12:24:49;;;;;;;2.00;1.90;;;27.50;99.90;;;;;;5077759;28;20541;-86
2022/08/02 12:27:34;;;;;;;2.90;2.10;;;27.60;99.90;;;;;;5076583;28;20852;-86
2022/08/02 12:30:06;;;;;;;2.07;1.73;;;27.60;99.90;;;;;;5063967;28;20475;-86
2022/08/02 12:32:35;;;;;;;2.20;2.00;;;27.60;99.90;;;;;;5060609;28;20455;-86
2022/08/02 12:35:08;;;;;;;2.30;2.20;;;27.60;99.90;;;;;;5073305;28;20466;-84
2022/08/02 12:37:39;;;;;;;2.80;1.90;;;27.70;99.90;;;;;;5075779;28;20450;-86
2022/08/02 12:40:24;;;;;;;2.23;1.83;;;27.70;99.90;;;;;;5079895;28;20466;-85
2022/08/02 12:42:56;;;;;;;1.70;1.60;;;27.70;99.90;;;;;;5075821;28;20450;-85
2022/08/02 12:45:25;;;;;;;1.73;1.50;;;27.70;99.90;;;;;;5075047;28;21363;-84
2022/08/02 12:48:07;;;;;;;2.30;2.10;;;27.70;99.90;;;;;;5077651;28;20450;-85
2022/08/02 12:50:36;;;;;;;2.73;2.53;;;27.80;99.90;;;;;;5077183;28;20450;-84
2022/08/02 12:53:07;;;;;;;2.10;2.00;;;27.80;99.90;;;;;;5073673;28;20458;-81
2022/08/02 12:55:46;;;;;;;2.90;2.70;;;27.80;99.90;;;;;;5074731;28;20980;-82
2022/08/02 12:58:30;;;;;;;2.07;1.97;;;27.90;99.90;;;;;;5065787;28;20478;-83
2022/08/02 13:01:00;;;;;;;2.13;2.03;;;27.90;99.90;;;;;;5069395;28;20457;-83
2022/08/02 13:03:29;;;;;;;2.10;1.93;;;27.90;99.90;;;;;;5069317;28;20957;-82
2022/08/02 13:06:18;;;;;;;2.13;1.97;;;27.90;99.90;;;;;;5066389;28;20640;-83
2022/08/02 13:09:13;;;;;;;2.00;1.90;;;27.90;99.90;;;;;;5070368;28;20477;-83
2022/08/02 13:11:43;;;;;;;2.17;2.07;;;27.90;99.90;;;;;;5070798;28;20447;-83
2022/08/02 13:14:12;;;;;;;2.47;2.37;;;28.00;99.90;;;;;;5070344;28;20454;-83
2022/08/02 13:16:42;;;;;;;2.47;2.27;;;28.00;99.90;;;;;;5070969;28;20893;-82
2022/08/02 13:19:11;;;;;;;2.70;2.13;;;28.00;99.90;;;;;;5070988;28;20474;-82